createdAt,value
2022-07-31T00:02:23.675Z,3.63
2022-07-31T00:05:27.573Z,3.83
2022-07-31T00:08:30.996Z,4.75
2022-07-31T00:11:35.771Z,4.35
2022-07-31T00:14:39.288Z,4.00
2022-07-31T00:17:44.446Z,3.45
2022-07-31T00:20:48.941Z,3.40
2022-07-31T00:23:52.341Z,5.53
2022-07-31T00:26:57.137Z,4.55
2022-07-31T00:30:00.455Z,3.92
2022-07-31T00:33:03.735Z,3.88
2022-07-31T00:36:07.290Z,3.50
2022-07-31T00:39:11.023Z,4.05
2022-07-31T00:42:20.364Z,3.72
2022-07-31T00:45:29.118Z,3.20
2022-07-31T00:48:35.698Z,8.85
2022-07-31T00:51:41.468Z,3.40
2022-07-31T00:54:44.802Z,6.18
2022-07-31T00:57:49.542Z,5.25
2022-07-31T01:00:53.142Z,4.32
2022-07-31T01:03:56.688Z,3.92
2022-07-31T01:07:01.450Z,4.70
2022-07-31T01:10:10.820Z,4.03
2022-07-31T01:13:24.376Z,3.95
2022-07-31T01:16:31.961Z,5.65
2022-07-31T01:19:42.809Z,6.75
2022-07-31T01:23:25.369Z,4.13
2022-07-31T01:26:57.283Z,4.20
2022-07-31T01:30:04.278Z,4.90
2022-07-31T01:33:12.493Z,4.05
2022-07-31T01:36:21.748Z,13.75
2022-07-31T01:39:26.324Z,5.68
2022-07-31T01:42:40.699Z,6.05
2022-07-31T01:45:48.171Z,5.80
2022-07-31T01:48:53.989Z,6.15
2022-07-31T01:52:04.265Z,6.35
2022-07-31T01:55:12.979Z,6.50
2022-07-31T01:58:20.365Z,6.90
2022-07-31T02:01:27.533Z,7.90
2022-07-31T02:04:33.313Z,6.88
2022-07-31T02:07:39.169Z,6.68
2022-07-31T02:10:45.791Z,8.55
2022-07-31T02:13:50.430Z,6.93
2022-07-31T02:16:56.344Z,8.48
2022-07-31T02:20:15.430Z,7.25
2022-07-31T02:23:19.451Z,12.05
2022-07-31T02:26:24.036Z,7.05
2022-07-31T02:29:32.652Z,8.27
2022-07-31T02:32:39.733Z,9.85
2022-07-31T02:35:45.707Z,8.25
2022-07-31T02:38:53.038Z,8.70
2022-07-31T02:41:58.174Z,6.80
2022-07-31T02:45:02.318Z,7.93
2022-07-31T02:48:07.999Z,6.43
2022-07-31T02:51:12.479Z,8.35
2022-07-31T02:54:18.890Z,10.88
2022-07-31T02:57:22.464Z,8.15
2022-07-31T03:00:27.201Z,8.60
2022-07-31T03:03:33.320Z,7.05
2022-07-31T03:06:36.914Z,5.93
2022-07-31T03:09:40.239Z,6.72
2022-07-31T03:13:08.016Z,9.68
2022-07-31T03:16:12.705Z,10.45
2022-07-31T03:19:17.847Z,8.07
2022-07-31T03:22:21.312Z,7.90
2022-07-31T03:25:25.295Z,8.05
2022-07-31T03:28:29.439Z,6.55
2022-07-31T03:31:32.789Z,8.93
2022-07-31T03:34:37.555Z,7.65
2022-07-31T03:37:40.992Z,8.20
2022-07-31T03:40:44.389Z,7.35
2022-07-31T03:43:49.333Z,7.03
2022-07-31T03:46:55.804Z,9.68
2022-07-31T03:50:03.040Z,9.35
2022-07-31T03:53:08.548Z,7.80
2022-07-31T03:56:20.049Z,9.07
2022-07-31T03:59:23.849Z,9.75
2022-07-31T04:02:27.842Z,8.80
2022-07-31T04:05:47.593Z,8.05
2022-07-31T04:08:51.166Z,9.88
2022-07-31T04:11:54.626Z,5.10
2022-07-31T04:14:58.060Z,7.63
2022-07-31T04:18:01.315Z,7.85
2022-07-31T04:21:12.622Z,10.77
2022-07-31T04:24:18.318Z,7.93
2022-07-31T04:27:48.339Z,6.00
2022-07-31T04:30:53.455Z,5.65
2022-07-31T04:33:57.242Z,8.38
2022-07-31T04:37:02.262Z,7.88
2022-07-31T04:40:06.258Z,7.13
2022-07-31T04:43:12.865Z,5.80
2022-07-31T04:46:17.774Z,8.00
2022-07-31T04:49:21.848Z,6.95
2022-07-31T04:52:26.682Z,9.20
2022-07-31T04:55:32.997Z,6.15
2022-07-31T04:58:36.543Z,6.88
2022-07-31T05:01:41.336Z,7.68
2022-07-31T05:04:44.873Z,9.52
2022-07-31T05:07:57.643Z,6.10
2022-07-31T05:11:23.617Z,8.02
2022-07-31T05:14:27.253Z,6.35
2022-07-31T05:17:31.015Z,5.85
2022-07-31T05:21:06.315Z,5.35
2022-07-31T05:24:33.573Z,7.00
2022-07-31T05:27:57.781Z,4.70
2022-07-31T05:31:02.949Z,5.53
2022-07-31T05:34:07.295Z,5.63
2022-07-31T05:37:10.642Z,3.92
2022-07-31T05:40:18.093Z,6.38
2022-07-31T05:43:40.330Z,7.50
2022-07-31T05:49:54.629Z,5.28
2022-07-31T05:52:58.413Z,5.32
2022-07-31T05:56:21.544Z,6.25
2022-07-31T05:59:27.657Z,4.72
2022-07-31T06:02:31.010Z,3.70
2022-07-31T06:05:44.784Z,5.07
2022-07-31T06:08:48.121Z,4.65
2022-07-31T06:11:52.845Z,4.00
2022-07-31T06:14:56.299Z,4.10
2022-07-31T06:18:09.472Z,3.60
2022-07-31T06:24:15.941Z,3.60
2022-07-31T06:27:33.381Z,4.50
2022-07-31T06:30:38.557Z,4.10
2022-07-31T06:33:43.531Z,4.00
2022-07-31T06:36:53.002Z,4.82
2022-07-31T06:39:58.455Z,4.60
2022-07-31T06:43:25.063Z,4.93
2022-07-31T06:46:49.319Z,7.28
2022-07-31T06:50:28.162Z,6.68
2022-07-31T06:53:47.122Z,6.72
2022-07-31T06:56:50.444Z,6.10
2022-07-31T06:59:55.224Z,9.10
2022-07-31T07:02:58.620Z,6.70
2022-07-31T07:06:03.571Z,5.63
2022-07-31T07:09:08.082Z,6.38
2022-07-31T07:12:16.604Z,6.78
2022-07-31T07:15:24.044Z,6.05
2022-07-31T07:18:27.429Z,6.70
2022-07-31T07:21:33.454Z,6.30
2022-07-31T07:24:36.789Z,9.52
2022-07-31T07:27:45.715Z,7.80
2022-07-31T07:30:50.838Z,8.32
2022-07-31T07:33:56.270Z,7.90
2022-07-31T07:37:00.534Z,8.02
2022-07-31T07:40:08.389Z,7.90
2022-07-31T07:43:11.864Z,9.80
2022-07-31T07:46:16.946Z,6.88
2022-07-31T07:49:26.674Z,9.15
2022-07-31T07:52:52.852Z,10.30
2022-07-31T07:56:19.612Z,7.40
2022-07-31T07:59:55.669Z,8.00
2022-07-31T08:03:48.262Z,9.82
2022-07-31T08:06:42.840Z,7.68
2022-07-31T08:09:46.380Z,10.32
2022-07-31T08:12:50.267Z,9.02
2022-07-31T08:16:02.861Z,7.50
2022-07-31T08:19:11.339Z,9.30
2022-07-31T08:22:14.988Z,7.95
2022-07-31T08:25:18.400Z,7.60
2022-07-31T08:28:24.138Z,7.30
2022-07-31T08:31:28.233Z,8.75
2022-07-31T08:35:02.366Z,7.22
2022-07-31T08:38:05.937Z,9.40
2022-07-31T08:41:16.275Z,6.93
2022-07-31T08:44:26.429Z,8.63
2022-07-31T08:47:37.275Z,7.10
2022-07-31T08:50:53.477Z,7.53
2022-07-31T08:54:21.369Z,7.13
2022-07-31T08:57:26.885Z,8.38
2022-07-31T09:00:30.346Z,7.68
2022-07-31T09:03:35.352Z,9.48
2022-07-31T09:06:42.599Z,8.25
2022-07-31T09:09:51.433Z,7.80
2022-07-31T09:12:57.887Z,8.70
2022-07-31T09:16:06.224Z,8.45
2022-07-31T09:19:54.034Z,9.68
2022-07-31T09:22:35.454Z,9.40
2022-07-31T09:25:41.913Z,10.02
2022-07-31T09:28:48.994Z,9.50
2022-07-31T09:31:52.397Z,9.88
2022-07-31T09:35:15.736Z,8.20
2022-07-31T09:38:21.236Z,8.02
2022-07-31T09:42:01.244Z,9.77
2022-07-31T09:45:26.183Z,7.00
2022-07-31T09:48:31.401Z,7.13
2022-07-31T09:51:40.736Z,9.90
2022-07-31T09:54:46.617Z,15.43
2022-07-31T09:58:03.997Z,10.68
2022-07-31T10:01:14.444Z,9.38
2022-07-31T10:04:19.415Z,7.32
2022-07-31T10:07:32.693Z,5.82
2022-07-31T10:10:54.158Z,5.75
2022-07-31T10:14:10.651Z,5.60
2022-07-31T10:17:21.460Z,5.70
2022-07-31T10:20:55.990Z,6.40
2022-07-31T10:24:09.260Z,6.65
2022-07-31T10:27:16.801Z,5.85
2022-07-31T10:30:22.784Z,4.78
2022-07-31T10:33:47.224Z,8.05
2022-07-31T10:37:14.785Z,5.63
2022-07-31T10:40:38.009Z,5.55
2022-07-31T10:43:49.284Z,4.35
2022-07-31T10:47:01.357Z,6.93
2022-07-31T10:50:22.913Z,4.47
2022-07-31T10:53:55.217Z,4.28
2022-07-31T10:57:23.768Z,4.20
2022-07-31T11:00:47.300Z,6.28
2022-07-31T11:04:10.957Z,4.38
2022-07-31T11:07:44.486Z,6.00
2022-07-31T11:11:03.488Z,6.85
2022-07-31T11:14:35.046Z,6.22
2022-07-31T11:18:20.913Z,7.78
2022-07-31T11:21:40.944Z,9.98
2022-07-31T11:24:54.223Z,3.78
2022-07-31T11:27:59.052Z,4.93
2022-07-31T11:31:03.947Z,3.80
2022-07-31T11:34:08.752Z,3.72
2022-07-31T11:37:17.469Z,3.63
2022-07-31T11:40:22.492Z,4.40
2022-07-31T11:43:31.930Z,4.25
2022-07-31T11:46:38.080Z,6.15
2022-07-31T11:49:49.015Z,5.97
2022-07-31T11:53:03.889Z,4.80
2022-07-31T11:56:07.347Z,5.60
2022-07-31T11:59:45.963Z,5.90
2022-07-31T12:02:34.118Z,4.07
2022-07-31T12:05:47.327Z,4.45
2022-07-31T12:08:52.263Z,4.38
2022-07-31T12:11:56.154Z,5.40
2022-07-31T12:14:59.453Z,5.43
2022-07-31T12:18:05.256Z,5.53
2022-07-31T12:21:10.373Z,6.22
2022-07-31T12:24:14.649Z,5.43
2022-07-31T12:27:19.393Z,5.43
2022-07-31T12:30:29.629Z,5.90
2022-07-31T12:33:42.112Z,6.10
2022-07-31T12:36:46.968Z,6.00
2022-07-31T12:40:00.730Z,7.90
2022-07-31T12:43:05.122Z,6.95
2022-07-31T12:46:08.432Z,6.53
2022-07-31T12:49:11.912Z,7.05
2022-07-31T12:52:16.963Z,6.15
2022-07-31T12:55:20.603Z,7.30
2022-07-31T12:58:23.932Z,8.10
2022-07-31T13:01:27.345Z,7.95
2022-07-31T13:04:30.758Z,7.22
2022-07-31T13:07:38.002Z,8.65
2022-07-31T13:10:41.435Z,7.53
2022-07-31T13:13:44.770Z,8.38
2022-07-31T13:16:48.906Z,8.60
2022-07-31T13:19:52.344Z,7.85
2022-07-31T13:22:59.158Z,8.52
2022-07-31T13:26:02.560Z,8.65
2022-07-31T13:29:08.732Z,8.13
2022-07-31T13:32:12.360Z,11.45
2022-07-31T13:35:23.919Z,8.38
2022-07-31T13:38:33.302Z,8.40
2022-07-31T13:41:38.959Z,7.97
2022-07-31T13:44:45.727Z,8.73
2022-07-31T13:47:52.906Z,8.93
2022-07-31T13:50:57.497Z,8.32
2022-07-31T13:54:02.274Z,10.32
2022-07-31T13:57:06.623Z,7.82
2022-07-31T14:00:11.459Z,8.00
2022-07-31T14:03:15.266Z,9.77
2022-07-31T14:06:21.848Z,10.32
2022-07-31T14:09:28.040Z,9.68
2022-07-31T14:12:31.354Z,9.02
2022-07-31T14:15:34.721Z,9.52
2022-07-31T14:18:37.984Z,11.52
2022-07-31T14:21:41.369Z,9.13
2022-07-31T14:25:01.423Z,10.40
2022-07-31T14:28:04.922Z,11.35
2022-07-31T14:31:08.296Z,9.63
2022-07-31T14:34:13.861Z,10.25
2022-07-31T14:37:17.273Z,10.15
2022-07-31T14:40:22.415Z,9.90
2022-07-31T14:43:25.846Z,10.52
2022-07-31T14:46:29.225Z,12.70
2022-07-31T14:50:09.606Z,10.98
2022-07-31T14:52:56.847Z,10.30
2022-07-31T14:56:04.909Z,10.90
2022-07-31T14:59:17.341Z,10.43
2022-07-31T15:02:22.813Z,10.70
2022-07-31T15:06:39.557Z,11.50
2022-07-31T15:08:49.955Z,10.98
2022-07-31T15:11:59.056Z,10.82
2022-07-31T15:15:05.291Z,10.45
2022-07-31T15:18:40.893Z,10.32
2022-07-31T15:22:09.812Z,9.50
2022-07-31T15:25:19.618Z,11.05
2022-07-31T15:28:24.314Z,11.50
2022-07-31T15:31:27.685Z,11.05
2022-07-31T15:34:32.690Z,12.65
2022-07-31T15:37:37.329Z,11.25
2022-07-31T15:40:40.697Z,10.93
2022-07-31T15:43:45.486Z,11.25
2022-07-31T15:46:48.857Z,11.27
2022-07-31T15:49:52.226Z,11.90
2022-07-31T15:52:55.506Z,13.25
2022-07-31T15:55:58.954Z,12.73
2022-07-31T15:59:03.808Z,12.70
2022-07-31T16:02:07.139Z,12.25
2022-07-31T16:05:20.046Z,14.48
2022-07-31T16:08:35.851Z,12.07
2022-07-31T16:12:02.935Z,13.60
2022-07-31T16:15:08.002Z,12.32
2022-07-31T16:18:18.475Z,14.90
2022-07-31T16:21:21.973Z,14.02
2022-07-31T16:24:25.345Z,12.43
2022-07-31T16:27:28.722Z,12.25
2022-07-31T16:30:33.634Z,11.73
2022-07-31T16:33:36.999Z,12.20
2022-07-31T16:36:41.338Z,12.23
2022-07-31T16:39:45.578Z,12.30
2022-07-31T16:42:50.655Z,13.10
2022-07-31T16:45:56.851Z,12.27
2022-07-31T16:49:00.149Z,12.95
2022-07-31T16:52:09.857Z,12.45
2022-07-31T16:55:13.151Z,11.60
2022-07-31T16:58:16.494Z,11.95
2022-07-31T17:01:58.064Z,11.95
2022-07-31T17:04:44.987Z,11.68
2022-07-31T17:07:48.342Z,11.95
2022-07-31T17:10:54.593Z,12.95
2022-07-31T17:13:58.200Z,13.23
2022-07-31T17:17:03.284Z,13.25
2022-07-31T17:20:08.013Z,13.27
2022-07-31T17:23:11.430Z,13.20
2022-07-31T17:26:21.444Z,13.35
2022-07-31T17:29:25.548Z,12.55
2022-07-31T17:32:32.253Z,13.52
2022-07-31T17:35:35.515Z,14.95
2022-07-31T17:38:38.895Z,14.15
2022-07-31T17:41:42.227Z,12.82
2022-07-31T17:44:46.551Z,12.88
2022-07-31T17:48:02.552Z,15.65
2022-07-31T17:51:07.290Z,13.00
2022-07-31T17:54:10.628Z,13.20
2022-07-31T17:57:13.950Z,12.85
2022-07-31T18:00:18.034Z,11.88
2022-07-31T18:03:22.753Z,9.45
2022-07-31T18:06:26.228Z,7.25
2022-07-31T18:09:30.197Z,6.50
2022-07-31T18:12:56.642Z,6.97
2022-07-31T18:16:00.479Z,7.28
2022-07-31T18:19:05.357Z,9.20
2022-07-31T18:22:08.744Z,9.75
2022-07-31T18:25:12.431Z,9.43
2022-07-31T18:28:15.693Z,8.35
2022-07-31T18:31:34.279Z,9.57
2022-07-31T18:34:40.566Z,6.93
2022-07-31T18:37:43.922Z,6.85
2022-07-31T18:40:47.409Z,9.25
2022-07-31T18:43:50.841Z,6.95
2022-07-31T18:46:54.266Z,8.10
2022-07-31T18:51:03.192Z,7.32
2022-07-31T18:53:22.428Z,11.15
2022-07-31T18:56:26.368Z,7.05
2022-07-31T18:59:29.670Z,7.53
2022-07-31T19:02:32.948Z,8.25
2022-07-31T19:05:37.731Z,7.32
2022-07-31T19:08:41.034Z,7.18
2022-07-31T19:11:51.822Z,8.50
2022-07-31T19:15:10.816Z,8.00
2022-07-31T19:18:14.254Z,8.63
2022-07-31T19:21:42.239Z,8.70
2022-07-31T19:24:46.303Z,13.25
2022-07-31T19:27:50.428Z,9.88
2022-07-31T19:30:53.952Z,10.07
2022-07-31T19:33:57.264Z,11.60
2022-07-31T19:37:02.357Z,10.90
2022-07-31T19:40:08.722Z,10.02
2022-07-31T19:43:12.804Z,8.90
2022-07-31T19:46:17.853Z,8.70
2022-07-31T19:49:21.362Z,8.07
2022-07-31T19:52:26.239Z,7.07
2022-07-31T19:55:29.622Z,9.65
2022-07-31T19:58:41.439Z,8.77
2022-07-31T20:01:44.856Z,10.45
2022-07-31T20:04:48.213Z,9.85
2022-07-31T20:07:53.004Z,8.80
2022-07-31T20:10:57.742Z,8.60
2022-07-31T20:14:01.248Z,10.30
2022-07-31T20:17:04.715Z,8.80
2022-07-31T20:20:15.572Z,11.00
2022-07-31T20:23:20.901Z,9.65
2022-07-31T20:26:25.156Z,8.75
2022-07-31T20:29:28.556Z,11.77
2022-07-31T20:32:32.073Z,12.18
2022-07-31T20:35:48.412Z,10.13
2022-07-31T20:38:54.694Z,8.40
2022-07-31T20:41:58.153Z,8.98
2022-07-31T20:45:01.643Z,8.68
2022-07-31T20:48:05.332Z,8.48
2022-07-31T20:51:13.234Z,8.95
2022-07-31T20:54:17.893Z,9.98
2022-07-31T20:57:37.777Z,8.98
2022-07-31T21:00:41.111Z,9.63
2022-07-31T21:03:44.494Z,9.48
2022-07-31T21:06:47.920Z,9.13
2022-07-31T21:09:52.613Z,9.18
2022-07-31T21:12:56.220Z,9.40
2022-07-31T21:15:59.878Z,9.70
2022-07-31T21:19:03.157Z,10.48
2022-07-31T21:22:06.759Z,9.55
2022-07-31T21:25:12.673Z,9.52
2022-07-31T21:28:16.482Z,9.07
2022-07-31T21:31:20.380Z,8.27
2022-07-31T21:34:23.994Z,9.90
2022-07-31T21:37:27.937Z,8.88
2022-07-31T21:40:45.392Z,9.93
2022-07-31T21:43:59.178Z,9.88
2022-07-31T21:47:04.009Z,9.57
2022-07-31T21:50:10.082Z,9.70
2022-07-31T21:53:15.590Z,11.38
2022-07-31T21:56:20.407Z,8.73
2022-07-31T21:59:23.994Z,9.55
2022-07-31T22:02:27.285Z,9.45
2022-07-31T22:05:48.203Z,10.23
2022-07-31T22:08:51.473Z,9.68
2022-07-31T22:12:00.869Z,9.45
2022-07-31T22:15:06.024Z,10.38
2022-07-31T22:18:10.141Z,9.63
2022-07-31T22:21:14.184Z,10.70
2022-07-31T22:24:18.719Z,10.27
2022-07-31T22:27:42.342Z,9.48
2022-07-31T22:30:46.360Z,9.38
2022-07-31T22:33:50.728Z,9.85
2022-07-31T22:36:54.497Z,10.15
2022-07-31T22:39:59.713Z,9.45
2022-07-31T22:43:04.726Z,9.02
2022-07-31T22:46:28.455Z,9.05
2022-07-31T22:49:36.709Z,8.60
2022-07-31T22:52:40.081Z,9.32
2022-07-31T22:55:43.499Z,9.23
2022-07-31T22:58:48.236Z,10.10
2022-07-31T23:01:51.576Z,8.48
2022-07-31T23:04:55.124Z,8.05
2022-07-31T23:07:58.494Z,8.65
2022-07-31T23:11:01.881Z,8.20
2022-07-31T23:14:06.588Z,7.85
2022-07-31T23:17:09.886Z,8.18
2022-07-31T23:20:26.326Z,7.72
2022-07-31T23:23:29.706Z,7.55
2022-07-31T23:26:33.075Z,7.85
2022-07-31T23:29:41.718Z,7.53
2022-07-31T23:32:45.124Z,8.07
2022-07-31T23:35:48.502Z,7.93
2022-07-31T23:38:52.239Z,7.20
2022-07-31T23:42:12.953Z,8.20
2022-07-31T23:45:20.659Z,7.78
2022-07-31T23:48:29.227Z,9.90
2022-07-31T23:51:34.658Z,8.00
2022-07-31T23:54:38.286Z,6.82
2022-07-31T23:57:41.720Z,7.15
